sensor_id;sensor_type;location;lat;lon;timestamp;pressure;altitude;pressure_sealevel;temperature
41654;BMP280;68687;52.030;7.110;2023-03-24T00:01:01;99289.38;;;10.49
41654;BMP280;68687;52.030;7.110;2023-03-24T00:03:28;99287.53;;;10.49
41654;BMP280;68687;52.030;7.110;2023-03-24T00:05:56;99286.31;;;10.45
41654;BMP280;68687;52.030;7.110;2023-03-24T00:08:22;99278.50;;;10.44
41654;BMP280;68687;52.030;7.110;2023-03-24T00:10:48;99275.38;;;10.40
41654;BMP280;68687;52.030;7.110;2023-03-24T00:13:15;99274.56;;;10.40
41654;BMP280;68687;52.030;7.110;2023-03-24T00:15:40;99278.28;;;10.39
41654;BMP280;68687;52.030;7.110;2023-03-24T00:18:06;99266.72;;;10.45
41654;BMP280;68687;52.030;7.110;2023-03-24T00:20:34;99275.00;;;10.37
41654;BMP280;68687;52.030;7.110;2023-03-24T00:23:00;99268.19;;;10.41
41654;BMP280;68687;52.030;7.110;2023-03-24T00:25:28;99254.78;;;10.41
41654;BMP280;68687;52.030;7.110;2023-03-24T00:27:57;99248.38;;;10.42
41654;BMP280;68687;52.030;7.110;2023-03-24T00:30:23;99247.75;;;10.40
41654;BMP280;68687;52.030;7.110;2023-03-24T00:32:50;99251.47;;;10.39
41654;BMP280;68687;52.030;7.110;2023-03-24T00:35:16;99233.47;;;10.46
41654;BMP280;68687;52.030;7.110;2023-03-24T00:37:42;99253.75;;;10.42
41654;BMP280;68687;52.030;7.110;2023-03-24T00:40:14;99243.13;;;10.53
41654;BMP280;68687;52.030;7.110;2023-03-24T00:42:41;99232.66;;;10.45
41654;BMP280;68687;52.030;7.110;2023-03-24T00:45:10;99233.66;;;10.51
41654;BMP280;68687;52.030;7.110;2023-03-24T00:47:37;99243.06;;;10.60
41654;BMP280;68687;52.030;7.110;2023-03-24T00:50:10;99241.81;;;10.63
41654;BMP280;68687;52.030;7.110;2023-03-24T00:52:36;99217.00;;;10.67
41654;BMP280;68687;52.030;7.110;2023-03-24T00:55:04;99217.22;;;10.66
41654;BMP280;68687;52.030;7.110;2023-03-24T00:57:31;99219.31;;;10.64
41654;BMP280;68687;52.030;7.110;2023-03-24T01:00:00;99202.97;;;10.65
41654;BMP280;68687;52.030;7.110;2023-03-24T01:02:36;99197.22;;;10.68
41654;BMP280;68687;52.030;7.110;2023-03-24T01:05:01;99196.63;;;10.60
41654;BMP280;68687;52.030;7.110;2023-03-24T01:07:28;99201.53;;;10.69
41654;BMP280;68687;52.030;7.110;2023-03-24T01:09:55;99202.75;;;10.67
41654;BMP280;68687;52.030;7.110;2023-03-24T01:12:32;99187.94;;;10.64
41654;BMP280;68687;52.030;7.110;2023-03-24T01:15:00;99173.44;;;10.72
41654;BMP280;68687;52.030;7.110;2023-03-24T01:17:27;99182.47;;;10.77
41654;BMP280;68687;52.030;7.110;2023-03-24T01:19:54;99183.72;;;10.75
41654;BMP280;68687;52.030;7.110;2023-03-24T01:22:19;99163.75;;;10.71
41654;BMP280;68687;52.030;7.110;2023-03-24T01:24:46;99172.16;;;10.74
41654;BMP280;68687;52.030;7.110;2023-03-24T01:27:12;99162.91;;;10.70
41654;BMP280;68687;52.030;7.110;2023-03-24T01:29:37;99162.31;;;10.68
41654;BMP280;68687;52.030;7.110;2023-03-24T01:32:03;99155.91;;;10.69
41654;BMP280;68687;52.030;7.110;2023-03-24T01:34:28;99153.63;;;10.66
41654;BMP280;68687;52.030;7.110;2023-03-24T01:36:53;99166.22;;;10.66
41654;BMP280;68687;52.030;7.110;2023-03-24T01:39:19;99160.66;;;10.67
41654;BMP280;68687;52.030;7.110;2023-03-24T01:41:44;99160.50;;;10.62
41654;BMP280;68687;52.030;7.110;2023-03-24T01:44:31;99145.19;;;10.69
41654;BMP280;68687;52.030;7.110;2023-03-24T01:46:59;99148.47;;;10.71
41654;BMP280;68687;52.030;7.110;2023-03-24T01:49:30;99135.66;;;10.67
41654;BMP280;68687;52.030;7.110;2023-03-24T01:51:59;99130.28;;;10.73
41654;BMP280;68687;52.030;7.110;2023-03-24T01:54:30;99127.28;;;10.81
41654;BMP280;68687;52.030;7.110;2023-03-24T01:57:08;99132.94;;;10.73
41654;BMP280;68687;52.030;7.110;2023-03-24T01:59:37;99126.19;;;10.89
41654;BMP280;68687;52.030;7.110;2023-03-24T02:02:04;99114.41;;;10.90
41654;BMP280;68687;52.030;7.110;2023-03-24T02:04:33;99108.19;;;10.90
41654;BMP280;68687;52.030;7.110;2023-03-24T02:07:14;99098.81;;;10.80
41654;BMP280;68687;52.030;7.110;2023-03-24T02:09:41;99101.63;;;10.86
41654;BMP280;68687;52.030;7.110;2023-03-24T02:12:06;99090.47;;;10.89
41654;BMP280;68687;52.030;7.110;2023-03-24T02:14:32;99081.75;;;10.75
41654;BMP280;68687;52.030;7.110;2023-03-24T02:17:17;99088.38;;;10.91
41654;BMP280;68687;52.030;7.110;2023-03-24T02:20:00;99087.31;;;10.92
41654;BMP280;68687;52.030;7.110;2023-03-24T02:28:25;99071.75;;;10.82
41654;BMP280;68687;52.030;7.110;2023-03-24T02:36:42;99050.88;;;10.84
41654;BMP280;68687;52.030;7.110;2023-03-24T02:44:38;99040.41;;;10.94
41654;BMP280;68687;52.030;7.110;2023-03-24T02:47:24;99034.91;;;10.89
41654;BMP280;68687;52.030;7.110;2023-03-24T02:50:26;99032.16;;;10.96
41654;BMP280;68687;52.030;7.110;2023-03-24T02:53:29;99023.88;;;10.97
41654;BMP280;68687;52.030;7.110;2023-03-24T02:56:14;99037.06;;;10.99
41654;BMP280;68687;52.030;7.110;2023-03-24T03:01:27;99023.44;;;11.00
41654;BMP280;68687;52.030;7.110;2023-03-24T03:04:01;99017.16;;;10.88
41654;BMP280;68687;52.030;7.110;2023-03-24T03:06:30;99009.19;;;11.00
41654;BMP280;68687;52.030;7.110;2023-03-24T03:09:00;99007.16;;;10.95
41654;BMP280;68687;52.030;7.110;2023-03-24T03:11:28;99009.19;;;11.00
41654;BMP280;68687;52.030;7.110;2023-03-24T03:13:58;99020.53;;;11.02
41654;BMP280;68687;52.030;7.110;2023-03-24T03:16:34;99009.47;;;11.10
41654;BMP280;68687;52.030;7.110;2023-03-24T03:19:16;98998.84;;;11.15
41654;BMP280;68687;52.030;7.110;2023-03-24T03:21:43;99001.75;;;11.13
41654;BMP280;68687;52.030;7.110;2023-03-24T03:24:17;98995.56;;;11.13
41654;BMP280;68687;52.030;7.110;2023-03-24T03:26:54;98991.75;;;11.21
41654;BMP280;68687;52.030;7.110;2023-03-24T03:29:23;98976.41;;;11.09
41654;BMP280;68687;52.030;7.110;2023-03-24T03:31:54;98980.06;;;11.15
41654;BMP280;68687;52.030;7.110;2023-03-24T03:34:48;99000.94;;;11.13
41654;BMP280;68687;52.030;7.110;2023-03-24T03:37:24;98994.41;;;11.09
41654;BMP280;68687;52.030;7.110;2023-03-24T03:39:58;98991.13;;;11.07
41654;BMP280;68687;52.030;7.110;2023-03-24T03:42:24;98982.94;;;11.02
41654;BMP280;68687;52.030;7.110;2023-03-24T03:44:50;98995.56;;;11.13
41654;BMP280;68687;52.030;7.110;2023-03-24T03:47:15;98995.66;;;11.06
41654;BMP280;68687;52.030;7.110;2023-03-24T03:49:44;98986.78;;;11.06
41654;BMP280;68687;52.030;7.110;2023-03-24T03:52:09;98976.41;;;11.09
41654;BMP280;68687;52.030;7.110;2023-03-24T03:54:36;98982.38;;;11.11
41654;BMP280;68687;52.030;7.110;2023-03-24T03:57:02;98981.78;;;11.09
41654;BMP280;68687;52.030;7.110;2023-03-24T03:59:31;98973.38;;;11.06
41654;BMP280;68687;52.030;7.110;2023-03-24T04:04:51;98989.94;;;11.03
41654;BMP280;68687;52.030;7.110;2023-03-24T04:07:28;98991.34;;;11.05
41654;BMP280;68687;52.030;7.110;2023-03-24T04:10:25;98994.25;;;11.04
41654;BMP280;68687;52.030;7.110;2023-03-24T04:15:44;98981.09;;;11.14
41654;BMP280;68687;52.030;7.110;2023-03-24T04:21:12;99007.44;;;11.24
41654;BMP280;68687;52.030;7.110;2023-03-24T04:32:20;99012.72;;;11.30
41654;BMP280;68687;52.030;7.110;2023-03-24T04:34:48;99013.53;;;11.31
41654;BMP280;68687;52.030;7.110;2023-03-24T04:37:23;99034.06;;;11.25
41654;BMP280;68687;52.030;7.110;2023-03-24T04:39:51;99072.25;;;11.27
41654;BMP280;68687;52.030;7.110;2023-03-24T04:42:26;99055.25;;;11.15
41654;BMP280;68687;52.030;7.110;2023-03-24T04:44:52;99065.25;;;11.08
41654;BMP280;68687;52.030;7.110;2023-03-24T04:47:20;99071.75;;;10.82
41654;BMP280;68687;52.030;7.110;2023-03-24T04:49:47;99084.69;;;10.67
41654;BMP280;68687;52.030;7.110;2023-03-24T04:52:12;99091.59;;;10.56
41654;BMP280;68687;52.030;7.110;2023-03-24T04:54:37;99094.50;;;10.55
41654;BMP280;68687;52.030;7.110;2023-03-24T04:57:03;99102.28;;;10.38
41654;BMP280;68687;52.030;7.110;2023-03-24T04:59:29;99110.44;;;10.25
41654;BMP280;68687;52.030;7.110;2023-03-24T05:01:59;99122.84;;;10.19
41654;BMP280;68687;52.030;7.110;2023-03-24T05:04:26;99141.91;;;10.04
41654;BMP280;68687;52.030;7.110;2023-03-24T05:06:52;99144.84;;;9.96
41654;BMP280;68687;52.030;7.110;2023-03-24T05:09:19;99156.19;;;9.98
41654;BMP280;68687;52.030;7.110;2023-03-24T05:11:46;99156.00;;;9.93
41654;BMP280;68687;52.030;7.110;2023-03-24T05:14:11;99171.50;;;9.91
41654;BMP280;68687;52.030;7.110;2023-03-24T05:16:37;99163.88;;;9.81
41654;BMP280;68687;52.030;7.110;2023-03-24T05:19:03;99176.69;;;9.79
41654;BMP280;68687;52.030;7.110;2023-03-24T05:21:30;99178.41;;;9.67
41654;BMP280;68687;52.030;7.110;2023-03-24T05:23:55;99187.28;;;9.61
41654;BMP280;68687;52.030;7.110;2023-03-24T05:26:20;99203.13;;;9.69
41654;BMP280;68687;52.030;7.110;2023-03-24T05:28:46;99201.72;;;9.53
41654;BMP280;68687;52.030;7.110;2023-03-24T05:31:11;99215.97;;;9.47
41654;BMP280;68687;52.030;7.110;2023-03-24T05:33:36;99214.56;;;9.38
41654;BMP280;68687;52.030;7.110;2023-03-24T05:36:02;99225.03;;;9.46
41654;BMP280;68687;52.030;7.110;2023-03-24T05:38:28;99220.72;;;9.45
41654;BMP280;68687;52.030;7.110;2023-03-24T05:41:00;99235.16;;;9.44
41654;BMP280;68687;52.030;7.110;2023-03-24T05:43:26;99248.31;;;9.46
41654;BMP280;68687;52.030;7.110;2023-03-24T05:45:51;99245.25;;;9.42
41654;BMP280;68687;52.030;7.110;2023-03-24T05:48:17;99251.88;;;9.33
41654;BMP280;68687;52.030;7.110;2023-03-24T05:50:42;99266.69;;;9.22
41654;BMP280;68687;52.030;7.110;2023-03-24T05:53:07;99257.66;;;9.17
41654;BMP280;68687;52.030;7.110;2023-03-24T05:55:34;99262.56;;;9.26
41654;BMP280;68687;52.030;7.110;2023-03-24T05:57:59;99260.72;;;9.27
41654;BMP280;68687;52.030;7.110;2023-03-24T06:00:28;99270.41;;;9.15
41654;BMP280;68687;52.030;7.110;2023-03-24T06:02:55;99270.84;;;9.12
41654;BMP280;68687;52.030;7.110;2023-03-24T06:05:20;99282.34;;;8.99
41654;BMP280;68687;52.030;7.110;2023-03-24T06:07:45;99290.19;;;9.01
41654;BMP280;68687;52.030;7.110;2023-03-24T06:10:11;99294.28;;;9.03
41654;BMP280;68687;52.030;7.110;2023-03-24T06:12:39;99297.78;;;9.04
41654;BMP280;68687;52.030;7.110;2023-03-24T06:15:05;99306.88;;;9.09
41654;BMP280;68687;52.030;7.110;2023-03-24T06:17:30;99301.94;;;9.13
41654;BMP280;68687;52.030;7.110;2023-03-24T06:19:56;99310.16;;;9.24
41654;BMP280;68687;52.030;7.110;2023-03-24T06:22:27;99316.97;;;9.14
41654;BMP280;68687;52.030;7.110;2023-03-24T06:24:53;99321.91;;;9.10
41654;BMP280;68687;52.030;7.110;2023-03-24T06:27:20;99312.84;;;9.18
41654;BMP280;68687;52.030;7.110;2023-03-24T06:29:49;99319.03;;;9.12
41654;BMP280;68687;52.030;7.110;2023-03-24T06:32:18;99319.84;;;9.12
41654;BMP280;68687;52.030;7.110;2023-03-24T06:34:43;99319.84;;;9.19
41654;BMP280;68687;52.030;7.110;2023-03-24T06:37:09;99327.44;;;9.02
41654;BMP280;68687;52.030;7.110;2023-03-24T06:39:34;99319.03;;;9.12
41654;BMP280;68687;52.030;7.110;2023-03-24T06:41:59;99326.84;;;9.20
41654;BMP280;68687;52.030;7.110;2023-03-24T06:44:25;99324.16;;;9.20
41654;BMP280;68687;52.030;7.110;2023-03-24T06:46:50;99332.59;;;9.30
41654;BMP280;68687;52.030;7.110;2023-03-24T06:49:15;99330.56;;;9.39
41654;BMP280;68687;52.030;7.110;2023-03-24T06:51:40;99338.78;;;9.37
41654;BMP280;68687;52.030;7.110;2023-03-24T06:54:06;99338.78;;;9.30
41654;BMP280;68687;52.030;7.110;2023-03-24T06:56:31;99332.63;;;9.37
41654;BMP280;68687;52.030;7.110;2023-03-24T06:58:56;99338.59;;;9.39
41654;BMP280;68687;52.030;7.110;2023-03-24T07:01:22;99343.72;;;9.53
41654;BMP280;68687;52.030;7.110;2023-03-24T07:03:48;99352.34;;;9.69
41654;BMP280;68687;52.030;7.110;2023-03-24T07:06:13;99351.69;;;9.80
41654;BMP280;68687;52.030;7.110;2023-03-24T07:08:39;99345.31;;;9.74
41654;BMP280;68687;52.030;7.110;2023-03-24T07:11:06;99357.69;;;9.82
41654;BMP280;68687;52.030;7.110;2023-03-24T07:13:32;99355.00;;;9.82
41654;BMP280;68687;52.030;7.110;2023-03-24T07:15:58;99375.03;;;9.73
41654;BMP280;68687;52.030;7.110;2023-03-24T07:18:23;99371.06;;;9.82
41654;BMP280;68687;52.030;7.110;2023-03-24T07:20:48;99376.66;;;9.80
41654;BMP280;68687;52.030;7.110;2023-03-24T07:23:14;99373.97;;;9.80
41654;BMP280;68687;52.030;7.110;2023-03-24T07:25:40;99367.38;;;9.83
41654;BMP280;68687;52.030;7.110;2023-03-24T07:28:05;99375.78;;;10.00
41654;BMP280;68687;52.030;7.110;2023-03-24T07:30:30;99362.00;;;9.96
41654;BMP280;68687;52.030;7.110;2023-03-24T07:32:56;99371.88;;;10.02
41654;BMP280;68687;52.030;7.110;2023-03-24T07:35:21;99365.25;;;10.05
41654;BMP280;68687;52.030;7.110;2023-03-24T07:37:46;99370.00;;;10.03
41654;BMP280;68687;52.030;7.110;2023-03-24T07:40:12;99371.69;;;9.97
41654;BMP280;68687;52.030;7.110;2023-03-24T07:42:40;99357.22;;;10.05
41654;BMP280;68687;52.030;7.110;2023-03-24T07:45:07;99367.69;;;10.13
41654;BMP280;68687;52.030;7.110;2023-03-24T07:47:33;99370.16;;;10.28
41654;BMP280;68687;52.030;7.110;2023-03-24T07:49:58;99364.19;;;10.26
41654;BMP280;68687;52.030;7.110;2023-03-24T07:52:24;99353.09;;;10.02
41654;BMP280;68687;52.030;7.110;2023-03-24T07:54:49;99361.72;;;10.11
41654;BMP280;68687;52.030;7.110;2023-03-24T07:57:14;99368.25;;;10.48
41654;BMP280;68687;52.030;7.110;2023-03-24T07:59:39;99375.69;;;10.46
41654;BMP280;68687;52.030;7.110;2023-03-24T08:02:15;99367.97;;;10.56
41654;BMP280;68687;52.030;7.110;2023-03-24T08:04:40;99378.53;;;10.51
41654;BMP280;68687;52.030;7.110;2023-03-24T08:07:06;99390.75;;;10.47
41654;BMP280;68687;52.030;7.110;2023-03-24T08:09:33;99400.00;;;10.51
41654;BMP280;68687;52.030;7.110;2023-03-24T08:11:58;99392.09;;;10.69
41654;BMP280;68687;52.030;7.110;2023-03-24T08:14:23;99405.56;;;10.56
41654;BMP280;68687;52.030;7.110;2023-03-24T08:16:49;99398.31;;;10.95
41654;BMP280;68687;52.030;7.110;2023-03-24T08:19:14;99405.00;;;10.86
41654;BMP280;68687;52.030;7.110;2023-03-24T08:21:39;99398.63;;;10.80
41654;BMP280;68687;52.030;7.110;2023-03-24T08:24:05;99398.69;;;11.05
41654;BMP280;68687;52.030;7.110;2023-03-24T08:26:31;99407.13;;;11.08
41654;BMP280;68687;52.030;7.110;2023-03-24T08:28:59;99417.13;;;10.95
41654;BMP280;68687;52.030;7.110;2023-03-24T08:31:30;99407.41;;;10.94
41654;BMP280;68687;52.030;7.110;2023-03-24T08:33:55;99420.28;;;10.85
41654;BMP280;68687;52.030;7.110;2023-03-24T08:36:21;99412.69;;;10.75
41654;BMP280;68687;52.030;7.110;2023-03-24T08:38:50;99433.34;;;10.75
41654;BMP280;68687;52.030;7.110;2023-03-24T08:41:18;99434.69;;;10.91
41654;BMP280;68687;52.030;7.110;2023-03-24T08:43:44;99440.69;;;10.93
41654;BMP280;68687;52.030;7.110;2023-03-24T08:46:09;99441.81;;;11.10
41654;BMP280;68687;52.030;7.110;2023-03-24T08:48:35;99449.66;;;11.11
41654;BMP280;68687;52.030;7.110;2023-03-24T08:51:09;99441.22;;;11.08
41654;BMP280;68687;52.030;7.110;2023-03-24T08:53:34;99442.94;;;11.34
41654;BMP280;68687;52.030;7.110;2023-03-24T08:55:59;99451.34;;;11.69
41654;BMP280;68687;52.030;7.110;2023-03-24T08:58:25;99446.91;;;11.56
41654;BMP280;68687;52.030;7.110;2023-03-24T09:00:51;99444.75;;;11.65
41654;BMP280;68687;52.030;7.110;2023-03-24T09:03:18;99449.25;;;11.71
41654;BMP280;68687;52.030;7.110;2023-03-24T09:05:47;99448.31;;;11.90
41654;BMP280;68687;52.030;7.110;2023-03-24T09:08:13;99447.97;;;11.80
41654;BMP280;68687;52.030;7.110;2023-03-24T09:10:40;99439.09;;;11.80
41654;BMP280;68687;52.030;7.110;2023-03-24T09:13:06;99455.50;;;11.65
41654;BMP280;68687;52.030;7.110;2023-03-24T09:15:32;99445.56;;;11.40
41654;BMP280;68687;52.030;7.110;2023-03-24T09:17:57;99449.81;;;11.55
41654;BMP280;68687;52.030;7.110;2023-03-24T09:20:23;99450.84;;;11.85
41654;BMP280;68687;52.030;7.110;2023-03-24T09:22:48;99454.69;;;12.14
41654;BMP280;68687;52.030;7.110;2023-03-24T09:25:17;99448.50;;;12.68
41654;BMP280;68687;52.030;7.110;2023-03-24T09:27:42;99456.88;;;12.79
41654;BMP280;68687;52.030;7.110;2023-03-24T09:30:09;99467.88;;;12.41
41654;BMP280;68687;52.030;7.110;2023-03-24T09:32:35;99464.75;;;12.00
41654;BMP280;68687;52.030;7.110;2023-03-24T09:35:01;99464.88;;;12.12
41654;BMP280;68687;52.030;7.110;2023-03-24T09:37:31;99464.38;;;12.40
41654;BMP280;68687;52.030;7.110;2023-03-24T09:39:57;99459.34;;;12.44
41654;BMP280;68687;52.030;7.110;2023-03-24T09:42:25;99465.31;;;12.27
41654;BMP280;68687;52.030;7.110;2023-03-24T09:45:14;99470.47;;;12.29
41654;BMP280;68687;52.030;7.110;2023-03-24T09:50:43;99477.53;;;12.05
41654;BMP280;68687;52.030;7.110;2023-03-24T09:56:01;99472.22;;;11.98
41654;BMP280;68687;52.030;7.110;2023-03-24T09:58:29;99475.13;;;11.97
41654;BMP280;68687;52.030;7.110;2023-03-24T10:00:56;99473.59;;;11.83
41654;BMP280;68687;52.030;7.110;2023-03-24T10:03:22;99480.63;;;12.09
41654;BMP280;68687;52.030;7.110;2023-03-24T10:08:35;99484.41;;;12.01
41654;BMP280;68687;52.030;7.110;2023-03-24T10:11:14;99481.81;;;12.13
41654;BMP280;68687;52.030;7.110;2023-03-24T10:16:19;99486.91;;;12.21
41654;BMP280;68687;52.030;7.110;2023-03-24T10:19:01;99478.09;;;12.32
41654;BMP280;68687;52.030;7.110;2023-03-24T10:21:31;99460.72;;;12.34
41654;BMP280;68687;52.030;7.110;2023-03-24T10:24:19;99476.16;;;12.57
41654;BMP280;68687;52.030;7.110;2023-03-24T10:26:53;99480.72;;;12.57
41654;BMP280;68687;52.030;7.110;2023-03-24T10:29:29;99484.47;;;12.56
41654;BMP280;68687;52.030;7.110;2023-03-24T10:32:26;99485.63;;;12.66
41654;BMP280;68687;52.030;7.110;2023-03-24T10:34:56;99487.03;;;12.69
41654;BMP280;68687;52.030;7.110;2023-03-24T10:37:24;99491.81;;;12.67
41654;BMP280;68687;52.030;7.110;2023-03-24T10:39:51;99492.09;;;12.41
41654;BMP280;68687;52.030;7.110;2023-03-24T10:42:20;99500.25;;;12.34
41654;BMP280;68687;52.030;7.110;2023-03-24T10:44:50;99494.69;;;12.29
41654;BMP280;68687;52.030;7.110;2023-03-24T10:47:20;99507.53;;;12.09
41654;BMP280;68687;52.030;7.110;2023-03-24T10:50:07;99503.19;;;12.07
41654;BMP280;68687;52.030;7.110;2023-03-24T10:52:44;99502.69;;;12.17
41654;BMP280;68687;52.030;7.110;2023-03-24T10:55:16;99509.72;;;12.18
41654;BMP280;68687;52.030;7.110;2023-03-24T10:57:44;99521.28;;;12.19
41654;BMP280;68687;52.030;7.110;2023-03-24T11:00:22;99525.78;;;12.25
41654;BMP280;68687;52.030;7.110;2023-03-24T11:03:03;99518.06;;;12.10
41654;BMP280;68687;52.030;7.110;2023-03-24T11:05:32;99532.66;;;11.96
41654;BMP280;68687;52.030;7.110;2023-03-24T11:08:26;99531.72;;;11.77
41654;BMP280;68687;52.030;7.110;2023-03-24T11:10:53;99524.97;;;11.99
41654;BMP280;68687;52.030;7.110;2023-03-24T11:13:38;99527.78;;;12.11
41654;BMP280;68687;52.030;7.110;2023-03-24T11:16:12;99529.34;;;12.19
41654;BMP280;68687;52.030;7.110;2023-03-24T11:18:54;99525.97;;;12.48
41654;BMP280;68687;52.030;7.110;2023-03-24T11:21:20;99530.34;;;12.67
41654;BMP280;68687;52.030;7.110;2023-03-24T11:23:46;99524.06;;;12.74
41654;BMP280;68687;52.030;7.110;2023-03-24T11:26:14;99523.13;;;12.43
41654;BMP280;68687;52.030;7.110;2023-03-24T11:28:45;99524.94;;;12.06
41654;BMP280;68687;52.030;7.110;2023-03-24T11:31:12;99530.25;;;12.74
41654;BMP280;68687;52.030;7.110;2023-03-24T11:33:55;99538.72;;;12.96
41654;BMP280;68687;52.030;7.110;2023-03-24T11:49:36;99542.75;;;12.25
41654;BMP280;68687;52.030;7.110;2023-03-24T11:52:07;99538.63;;;12.23
41654;BMP280;68687;52.030;7.110;2023-03-24T11:54:36;99546.31;;;12.44
41654;BMP280;68687;52.030;7.110;2023-03-24T11:57:08;99559.41;;;12.59
41654;BMP280;68687;52.030;7.110;2023-03-24T11:59:56;99561.25;;;12.40
41654;BMP280;68687;52.030;7.110;2023-03-24T12:03:03;99552.53;;;12.20
41654;BMP280;68687;52.030;7.110;2023-03-24T12:05:35;99549.16;;;12.24
41654;BMP280;68687;52.030;7.110;2023-03-24T12:10:57;99537.59;;;12.24
41654;BMP280;68687;52.030;7.110;2023-03-24T12:13:32;99531.59;;;12.22
41654;BMP280;68687;52.030;7.110;2023-03-24T12:19:27;99536.28;;;12.33
41654;BMP280;68687;52.030;7.110;2023-03-24T12:22:13;99537.94;;;12.52
41654;BMP280;68687;52.030;7.110;2023-03-24T12:25:07;99547.50;;;12.48
41654;BMP280;68687;52.030;7.110;2023-03-24T12:27:58;99542.13;;;12.48
41654;BMP280;68687;52.030;7.110;2023-03-24T12:33:33;99545.09;;;11.90
41654;BMP280;68687;52.030;7.110;2023-03-24T12:39:03;99538.53;;;11.86
41654;BMP280;68687;52.030;7.110;2023-03-24T12:56:08;99528.94;;;11.27
41654;BMP280;68687;52.030;7.110;2023-03-24T13:01:32;99526.59;;;11.37
41654;BMP280;68687;52.030;7.110;2023-03-24T13:06:33;99525.91;;;11.49
41654;BMP280;68687;52.030;7.110;2023-03-24T13:09:21;99529.13;;;11.64
41654;BMP280;68687;52.030;7.110;2023-03-24T13:11:59;99512.69;;;11.85
41654;BMP280;68687;52.030;7.110;2023-03-24T13:14:32;99516.03;;;12.05
41654;BMP280;68687;52.030;7.110;2023-03-24T13:17:08;99521.44;;;12.24
41654;BMP280;68687;52.030;7.110;2023-03-24T13:19:36;99521.00;;;12.27
41654;BMP280;68687;52.030;7.110;2023-03-24T13:22:03;99524.25;;;12.11
41654;BMP280;68687;52.030;7.110;2023-03-24T13:24:30;99512.78;;;11.97
41654;BMP280;68687;52.030;7.110;2023-03-24T13:30:12;99544.50;;;11.12
41654;BMP280;68687;52.030;7.110;2023-03-24T13:32:44;99562.03;;;10.50
41654;BMP280;68687;52.030;7.110;2023-03-24T13:35:37;99547.38;;;10.19
41654;BMP280;68687;52.030;7.110;2023-03-24T13:40:50;99562.19;;;9.82
41654;BMP280;68687;52.030;7.110;2023-03-24T13:43:21;99582.84;;;9.88
41654;BMP280;68687;52.030;7.110;2023-03-24T13:45:57;99586.88;;;9.45
41654;BMP280;68687;52.030;7.110;2023-03-24T13:48:32;99583.69;;;9.28
41654;BMP280;68687;52.030;7.110;2023-03-24T13:51:21;99578.13;;;9.29
41654;BMP280;68687;52.030;7.110;2023-03-24T13:54:12;99596.88;;;9.23
41654;BMP280;68687;52.030;7.110;2023-03-24T13:56:43;99585.34;;;9.22
41654;BMP280;68687;52.030;7.110;2023-03-24T13:59:27;99593.44;;;9.42
41654;BMP280;68687;52.030;7.110;2023-03-24T14:07:50;99587.72;;;9.58
41654;BMP280;68687;52.030;7.110;2023-03-24T14:10:37;99580.69;;;9.57
41654;BMP280;68687;52.030;7.110;2023-03-24T14:13:17;99573.09;;;9.61
41654;BMP280;68687;52.030;7.110;2023-03-24T14:15:56;99571.22;;;9.48
41654;BMP280;68687;52.030;7.110;2023-03-24T14:23:45;99569.22;;;10.03
41654;BMP280;68687;52.030;7.110;2023-03-24T14:26:28;99563.88;;;10.16
41654;BMP280;68687;52.030;7.110;2023-03-24T14:28:56;99559.94;;;10.12
41654;BMP280;68687;52.030;7.110;2023-03-24T14:31:30;99562.44;;;10.34
41654;BMP280;68687;52.030;7.110;2023-03-24T14:33:59;99559.34;;;10.37
41654;BMP280;68687;52.030;7.110;2023-03-24T14:36:35;99555.22;;;10.47
41654;BMP280;68687;52.030;7.110;2023-03-24T14:39:40;99555.03;;;10.16
41654;BMP280;68687;52.030;7.110;2023-03-24T14:47:58;99548.84;;;10.22
41654;BMP280;68687;52.030;7.110;2023-03-24T14:50:24;99546.97;;;10.03
41654;BMP280;68687;52.030;7.110;2023-03-24T14:52:53;99557.50;;;10.17
41654;BMP280;68687;52.030;7.110;2023-03-24T14:55:21;99551.91;;;10.19
41654;BMP280;68687;52.030;7.110;2023-03-24T14:57:54;99547.19;;;10.21
41654;BMP280;68687;52.030;7.110;2023-03-24T15:00:35;99537.28;;;10.28
41654;BMP280;68687;52.030;7.110;2023-03-24T15:03:26;99542.44;;;10.43
41654;BMP280;68687;52.030;7.110;2023-03-24T15:06:03;99545.88;;;10.63
41654;BMP280;68687;52.030;7.110;2023-03-24T15:08:28;99541.34;;;10.70
41654;BMP280;68687;52.030;7.110;2023-03-24T15:10:57;99547.31;;;10.79
41654;BMP280;68687;52.030;7.110;2023-03-24T15:13:42;99550.63;;;10.74
41654;BMP280;68687;52.030;7.110;2023-03-24T15:18:34;99569.22;;;10.76
41654;BMP280;68687;52.030;7.110;2023-03-24T15:20:59;99567.56;;;10.62
41654;BMP280;68687;52.030;7.110;2023-03-24T15:23:26;99584.50;;;10.62
41654;BMP280;68687;52.030;7.110;2023-03-24T15:25:53;99577.91;;;10.58
41654;BMP280;68687;52.030;7.110;2023-03-24T15:28:25;99556.44;;;10.58
41654;BMP280;68687;52.030;7.110;2023-03-24T15:30:51;99570.50;;;10.47
41654;BMP280;68687;52.030;7.110;2023-03-24T15:33:16;99553.56;;;10.53
41654;BMP280;68687;52.030;7.110;2023-03-24T15:35:46;99555.44;;;10.46
41654;BMP280;68687;52.030;7.110;2023-03-24T15:38:19;99558.09;;;10.52
41654;BMP280;68687;52.030;7.110;2023-03-24T15:41:19;99561.22;;;10.43
41654;BMP280;68687;52.030;7.110;2023-03-24T15:43:49;99563.28;;;10.28
41654;BMP280;68687;52.030;7.110;2023-03-24T15:46:29;99560.41;;;10.23
41654;BMP280;68687;52.030;7.110;2023-03-24T15:48:57;99555.22;;;10.14
41654;BMP280;68687;52.030;7.110;2023-03-24T15:51:55;99546.53;;;10.06
41654;BMP280;68687;52.030;7.110;2023-03-24T15:54:27;99543.88;;;10.19
41654;BMP280;68687;52.030;7.110;2023-03-24T15:59:55;99551.91;;;9.99
41654;BMP280;68687;52.030;7.110;2023-03-24T16:02:26;99568.22;;;9.91
41654;BMP280;68687;52.030;7.110;2023-03-24T16:04:59;99596.41;;;9.60
41654;BMP280;68687;52.030;7.110;2023-03-24T16:07:29;99575.31;;;9.44
41654;BMP280;68687;52.030;7.110;2023-03-24T16:10:01;99551.47;;;9.02
41654;BMP280;68687;52.030;7.110;2023-03-24T16:12:35;99525.94;;;8.99
41654;BMP280;68687;52.030;7.110;2023-03-24T16:15:00;99513.75;;;8.90
41654;BMP280;68687;52.030;7.110;2023-03-24T16:17:26;99521.00;;;9.03
41654;BMP280;68687;52.030;7.110;2023-03-24T16:19:52;99530.91;;;9.09
41654;BMP280;68687;52.030;7.110;2023-03-24T16:22:17;99522.28;;;9.13
41654;BMP280;68687;52.030;7.110;2023-03-24T16:24:43;99516.72;;;9.15
41654;BMP280;68687;52.030;7.110;2023-03-24T16:27:10;99524.13;;;9.13
41654;BMP280;68687;52.030;7.110;2023-03-24T16:29:36;99518.78;;;9.06
41654;BMP280;68687;52.030;7.110;2023-03-24T16:32:02;99524.47;;;8.96